Time;durP1;ratioP1;P1;durP2;ratioP2;P2;SDS_P1;SDS_P2;PMS_P1;PMS_P2;Temp;Humidity;BMP_temperature;BMP_pressure;BME280_temperature;BME280_humidity;BME280_pressure;Samples;Min_cycle;Max_cycle;Signal;HPM_P1;HPM_P2
2020/12/07 05:00:49;;;;;;;28.20;15.00;;;6.20;99.90;;;;;;5580948;24;170884;31
2020/12/07 05:03:15;;;;;;;18.33;13.57;;;6.20;99.90;;;;;;4607606;29;171474;-73
2020/12/07 05:05:42;;;;;;;22.60;14.10;;;6.50;99.90;;;;;;4615227;29;171595;-79
2020/12/07 05:08:09;;;;;;;19.23;13.77;;;6.20;99.90;;;;;;4639750;29;170284;-73
2020/12/07 05:10:41;;;;;;;17.77;13.43;;;6.20;99.90;;;;;;4615054;29;170647;-72
2020/12/07 05:13:22;;;;;;;21.23;13.60;;;6.10;99.90;;;;;;4614581;29;171901;-72
2020/12/07 05:15:48;;;;;;;30.40;14.33;;;6.10;99.90;;;;;;4613733;29;171024;-71
2020/12/07 05:18:15;;;;;;;18.20;13.57;;;6.10;99.90;;;;;;4614486;29;169555;-72
2020/12/07 05:20:42;;;;;;;19.63;14.70;;;6.10;99.90;;;;;;4615951;29;170312;-71
2020/12/07 05:23:10;;;;;;;21.67;13.77;;;6.10;99.90;;;;;;4619178;30;169712;-71
2020/12/07 05:25:36;;;;;;;21.50;13.23;;;6.50;99.90;;;;;;4618558;30;169848;-72
2020/12/07 05:28:06;;;;;;;17.00;12.70;;;6.10;99.90;;;;;;4631897;29;171128;-72
2020/12/07 05:30:40;;;;;;;17.20;13.27;;;6.10;99.90;;;;;;4645897;29;175097;-73
2020/12/07 05:33:06;;;;;;;20.97;13.07;;;6.10;99.90;;;;;;4618437;30;170925;-72
2020/12/07 05:35:39;;;;;;;25.53;14.17;;;6.10;99.90;;;;;;4618965;30;170361;-72
2020/12/07 05:38:06;;;;;;;19.27;13.67;;;6.00;99.90;;;;;;4618471;30;169140;-72
2020/12/07 05:40:32;;;;;;;35.30;12.77;;;6.00;99.90;;;;;;4632001;29;172146;-71
2020/12/07 05:42:59;;;;;;;18.20;13.17;;;6.00;99.90;;;;;;4618329;30;170087;-72
2020/12/07 05:45:26;;;;;;;18.57;12.73;;;6.00;99.90;;;;;;4642479;29;172983;-72
2020/12/07 05:47:53;;;;;;;18.63;12.77;;;6.00;99.90;;;;;;4612272;29;171981;-71
2020/12/07 05:50:21;;;;;;;19.47;13.33;;;6.10;99.90;;;;;;4628230;29;170939;-72
2020/12/07 05:52:50;;;;;;;25.93;13.20;;;6.10;99.90;;;;;;4647121;29;171620;-72
2020/12/07 05:55:18;;;;;;;16.60;12.67;;;6.00;99.90;;;;;;4634033;29;172261;-72
2020/12/07 05:58:04;;;;;;;36.87;14.07;;;6.10;99.90;;;;;;4634785;29;169281;-73
2020/12/07 06:00:35;;;;;;;25.10;12.43;;;6.00;99.90;;;;;;4634925;29;169971;-78
2020/12/07 06:03:03;;;;;;;16.63;12.30;;;6.10;99.90;;;;;;4633823;29;171452;-72
2020/12/07 06:05:30;;;;;;;62.73;16.13;;;6.00;99.90;;;;;;4621743;29;169829;-72
2020/12/07 06:08:13;;;;;;;27.50;13.47;;;6.00;99.90;;;;;;4634211;29;169829;-77
2020/12/07 06:10:53;;;;;;;34.63;14.63;;;6.10;99.90;;;;;;4621042;29;171177;-72
2020/12/07 06:13:24;;;;;;;16.60;12.10;;;6.10;99.90;;;;;;4621139;29;172049;-73
2020/12/07 06:15:54;;;;;;;16.80;12.57;;;6.00;99.90;;;;;;4617153;29;169386;-72
2020/12/07 06:18:43;;;;;;;17.30;12.10;;;6.10;99.90;;;;;;4615760;29;171836;-79
2020/12/07 06:21:17;;;;;;;28.70;14.27;;;6.00;99.90;;;;;;4614360;29;170649;-73
2020/12/07 06:23:46;;;;;;;17.47;11.73;;;6.00;99.90;;;;;;4619053;29;170032;-72
2020/12/07 06:26:14;;;;;;;20.50;13.13;;;6.00;99.90;;;;;;4618845;29;170246;-72
2020/12/07 06:28:45;;;;;;;19.47;12.50;;;6.00;99.90;;;;;;4620822;30;169228;-79
2020/12/07 06:31:15;;;;;;;32.63;14.27;;;6.10;99.90;;;;;;4618224;30;170224;-72
2020/12/07 06:33:51;;;;;;;22.70;12.83;;;6.00;99.90;;;;;;4618402;29;173891;-72
2020/12/07 06:36:24;;;;;;;24.27;13.10;;;6.00;99.90;;;;;;4614959;30;172391;-73
2020/12/07 06:38:50;;;;;;;19.07;12.97;;;6.00;99.90;;;;;;4617465;30;169964;-73
2020/12/07 06:41:39;;;;;;;37.63;13.83;;;6.00;99.90;;;;;;4617867;30;169783;-73
2020/12/07 06:44:08;;;;;;;49.40;14.40;;;6.00;99.90;;;;;;4631049;29;170894;-73
2020/12/07 06:46:59;;;;;;;16.73;12.70;;;6.30;99.90;;;;;;4617211;30;170408;-71
2020/12/07 06:49:36;;;;;;;21.07;12.37;;;6.00;99.90;;;;;;4618717;30;169718;-71
2020/12/07 06:52:11;;;;;;;23.47;13.30;;;6.10;99.90;;;;;;4601445;30;170393;-72
2020/12/07 06:57:31;;;;;;;23.07;13.37;;;6.00;99.90;;;;;;4615580;29;171716;-72
2020/12/07 07:00:04;;;;;;;56.83;15.40;;;6.00;99.90;;;;;;4616711;29;170247;-75
2020/12/07 07:02:31;;;;;;;21.50;12.67;;;6.00;99.90;;;;;;4632372;29;170188;-72
2020/12/07 07:05:01;;;;;;;24.13;13.13;;;6.00;99.90;;;;;;4637261;29;170122;-72
2020/12/07 07:07:29;;;;;;;26.23;13.40;;;6.00;99.90;;;;;;4624045;29;168943;-73
2020/12/07 07:09:59;;;;;;;18.27;12.80;;;6.00;99.90;;;;;;4623813;29;169084;-76
2020/12/07 07:12:27;;;;;;;24.70;14.50;;;6.00;99.90;;;;;;4623231;30;171583;-72
2020/12/07 07:14:56;;;;;;;23.73;12.90;;;6.10;99.90;;;;;;4623877;30;170234;-72
2020/12/07 07:17:26;;;;;;;39.27;14.40;;;6.00;99.90;;;;;;4624151;30;169422;-79
2020/12/07 07:19:52;;;;;;;63.10;16.63;;;6.00;99.90;;;;;;4622395;29;171304;-73
2020/12/07 07:22:19;;;;;;;58.53;16.60;;;6.00;99.90;;;;;;4623658;30;169799;-70
2020/12/07 07:24:52;;;;;;;19.10;13.37;;;6.00;99.90;;;;;;4623752;30;170134;-70
2020/12/07 07:30:04;;;;;;;32.67;14.90;;;5.90;99.90;;;;;;4624443;30;169030;-71
2020/12/07 07:32:34;;;;;;;26.93;14.00;;;6.00;99.90;;;;;;4623267;30;169972;-70
2020/12/07 07:35:01;;;;;;;23.37;13.33;;;5.90;99.90;;;;;;4623526;30;170070;-68
2020/12/07 07:37:28;;;;;;;36.43;14.70;;;6.00;99.90;;;;;;4622998;30;172649;-72
2020/12/07 07:40:18;;;;;;;40.90;15.37;;;5.90;99.90;;;;;;4623322;30;169923;-69
2020/12/07 07:42:53;;;;;;;37.77;15.13;;;5.90;99.90;;;;;;4622752;29;174936;-68
2020/12/07 07:45:23;;;;;;;28.63;14.33;;;5.90;99.90;;;;;;4623519;30;170685;-68
2020/12/07 07:48:02;;;;;;;31.77;15.47;;;5.90;99.90;;;;;;4623146;30;169944;-68
2020/12/07 08:02:02;;;;;;;31.27;14.13;;;5.90;99.90;;;;;;4622495;29;168988;-72
2020/12/07 08:17:56;;;;;;;21.57;13.43;;;5.90;99.90;;;;;;4622259;29;170727;-69
2020/12/07 08:20:24;;;;;;;17.77;12.97;;;5.90;99.90;;;;;;4629036;29;172380;-69
2020/12/07 08:23:09;;;;;;;17.50;13.90;;;5.90;99.90;;;;;;4629409;29;171020;-73
2020/12/07 08:25:50;;;;;;;20.43;13.57;;;5.90;99.90;;;;;;4615544;29;169780;-69
2020/12/07 08:28:51;;;;;;;20.73;13.40;;;5.90;99.90;;;;;;4613691;29;171624;-72
2020/12/07 08:31:22;;;;;;;18.00;13.17;;;5.90;99.90;;;;;;4615321;29;170337;-70
2020/12/07 08:34:11;;;;;;;17.00;13.27;;;5.90;99.90;;;;;;4621876;29;169559;-70
2020/12/07 08:36:40;;;;;;;17.07;13.53;;;6.00;99.90;;;;;;4619453;29;169957;-75
2020/12/07 08:39:08;;;;;;;16.37;12.67;;;5.90;99.90;;;;;;4613425;30;169772;-70
2020/12/07 08:41:35;;;;;;;17.67;13.10;;;5.90;99.90;;;;;;4605659;29;170551;-70
2020/12/07 08:44:07;;;;;;;19.17;13.63;;;6.30;99.90;;;;;;4628319;29;171207;-71
2020/12/07 08:46:36;;;;;;;21.03;14.73;;;5.90;99.90;;;;;;4613271;29;170141;-70
2020/12/07 08:49:03;;;;;;;20.07;14.80;;;5.90;99.90;;;;;;4613432;30;170246;-71
2020/12/07 08:51:32;;;;;;;17.73;13.30;;;5.90;99.90;;;;;;4613926;29;169400;-70
2020/12/07 08:53:59;;;;;;;18.80;13.87;;;5.90;99.90;;;;;;4612443;29;170585;-70
2020/12/07 08:56:26;;;;;;;17.90;13.37;;;5.90;99.90;;;;;;4625751;29;171372;-76
2020/12/07 08:58:55;;;;;;;23.17;14.47;;;5.90;99.90;;;;;;4615829;29;169772;-74
2020/12/07 09:01:21;;;;;;;18.83;13.07;;;5.90;99.90;;;;;;4614711;29;170600;-70
2020/12/07 09:03:47;;;;;;;18.57;13.57;;;5.90;99.90;;;;;;4615950;30;170441;-70
2020/12/07 09:06:15;;;;;;;19.23;13.90;;;5.90;99.90;;;;;;4615371;30;170817;-71
2020/12/07 09:08:42;;;;;;;18.43;12.93;;;5.90;99.90;;;;;;4626861;29;170572;-71
2020/12/07 09:11:11;;;;;;;17.10;12.83;;;5.90;99.90;;;;;;4628584;29;169492;-71
2020/12/07 09:13:39;;;;;;;17.33;12.93;;;5.90;99.90;;;;;;4610984;30;169622;-70
2020/12/07 09:16:06;;;;;;;20.97;13.60;;;5.90;99.90;;;;;;4604834;29;171320;-78
2020/12/07 09:18:32;;;;;;;16.10;12.67;;;6.00;99.90;;;;;;4631665;29;170587;-70
2020/12/07 09:21:04;;;;;;;18.13;13.17;;;6.00;99.90;;;;;;4622515;29;170136;-71
2020/12/07 09:23:32;;;;;;;16.03;13.03;;;6.00;99.90;;;;;;4617320;29;170019;-70
2020/12/07 09:25:58;;;;;;;16.30;12.67;;;6.00;99.90;;;;;;4615273;30;170703;-69
2020/12/07 09:28:25;;;;;;;18.17;12.83;;;6.00;99.90;;;;;;4616138;30;169422;-71
2020/12/07 09:30:51;;;;;;;17.37;12.47;;;6.30;99.90;;;;;;4612277;29;170633;-71
2020/12/07 09:33:17;;;;;;;16.13;13.17;;;6.00;99.90;;;;;;4616404;29;169640;-73
2020/12/07 09:35:44;;;;;;;17.53;12.43;;;6.10;99.90;;;;;;4626299;29;172418;-71
2020/12/07 09:38:10;;;;;;;15.60;12.30;;;6.00;99.90;;;;;;4615645;29;170917;-70
2020/12/07 09:40:37;;;;;;;18.90;12.73;;;6.30;99.90;;;;;;4614436;29;169768;-71
2020/12/07 09:43:03;;;;;;;14.40;12.10;;;6.10;99.90;;;;;;4612194;30;170087;-71
2020/12/07 09:45:31;;;;;;;17.77;12.83;;;6.10;99.90;;;;;;4614217;30;172057;-71
2020/12/07 09:48:00;;;;;;;16.20;12.40;;;6.10;99.90;;;;;;4612736;29;175227;-71
2020/12/07 09:50:31;;;;;;;16.00;12.73;;;6.10;99.90;;;;;;4616134;30;169844;-71
2020/12/07 09:52:58;;;;;;;15.67;12.63;;;6.30;99.90;;;;;;4610949;29;172119;-72
2020/12/07 09:55:25;;;;;;;17.00;12.47;;;6.10;99.90;;;;;;4624022;29;172439;-71
2020/12/07 09:57:52;;;;;;;15.37;11.80;;;6.10;99.90;;;;;;4628208;29;174057;-71
2020/12/07 10:00:19;;;;;;;15.80;12.93;;;6.10;99.90;;;;;;4611644;29;171324;-70
2020/12/07 10:02:46;;;;;;;20.40;13.20;;;6.10;99.90;;;;;;4613218;30;169951;-71
2020/12/07 10:05:13;;;;;;;23.30;13.57;;;6.20;99.90;;;;;;4608194;29;171193;-72
2020/12/07 10:07:40;;;;;;;16.67;12.10;;;6.20;99.90;;;;;;4614309;29;171902;-71
2020/12/07 10:10:06;;;;;;;17.13;12.63;;;6.10;99.90;;;;;;4622688;29;172474;-74
2020/12/07 10:12:33;;;;;;;18.07;12.67;;;6.30;99.90;;;;;;4614080;30;172025;-77
2020/12/07 10:15:00;;;;;;;16.07;12.03;;;6.10;99.90;;;;;;4599749;30;169897;-72
2020/12/07 10:17:26;;;;;;;16.43;12.17;;;6.10;99.90;;;;;;4612409;29;174206;-71
2020/12/07 10:19:53;;;;;;;15.27;12.23;;;6.10;99.90;;;;;;4613066;29;172034;-73
2020/12/07 10:22:19;;;;;;;17.20;12.13;;;6.20;99.90;;;;;;4606690;29;169109;-76
2020/12/07 10:24:45;;;;;;;17.07;12.70;;;6.10;99.90;;;;;;4609528;29;172540;-77
2020/12/07 10:27:12;;;;;;;13.80;11.53;;;6.10;99.90;;;;;;4627847;29;172162;-71
2020/12/07 10:29:38;;;;;;;19.03;12.80;;;6.10;99.90;;;;;;4616407;29;170351;-71
2020/12/07 10:32:04;;;;;;;16.60;12.57;;;6.20;99.90;;;;;;4620676;29;172057;-71
2020/12/07 10:34:31;;;;;;;15.97;11.80;;;6.20;99.90;;;;;;4609040;30;171640;-71
2020/12/07 10:37:00;;;;;;;17.10;11.70;;;6.20;99.90;;;;;;4610860;30;173687;-74
2020/12/07 10:39:28;;;;;;;20.70;15.83;;;6.20;99.90;;;;;;4609724;30;169466;-72
2020/12/07 10:41:57;;;;;;;32.20;25.53;;;6.20;99.90;;;;;;4617004;29;169297;-75
2020/12/07 10:44:25;;;;;;;34.10;25.37;;;6.20;99.90;;;;;;4619118;29;169655;-72
2020/12/07 10:46:52;;;;;;;17.67;14.77;;;6.20;99.90;;;;;;4617517;29;169185;-71
2020/12/07 10:49:18;;;;;;;18.37;15.63;;;6.40;99.90;;;;;;4616440;29;170514;-72
2020/12/07 10:51:48;;;;;;;18.57;14.03;;;6.30;99.90;;;;;;4614999;29;169337;-70
2020/12/07 10:54:14;;;;;;;489.47;36.17;;;6.30;99.90;;;;;;4619316;29;174700;-69
2020/12/07 10:56:44;;;;;;;18.87;15.10;;;6.30;99.90;;;;;;4615110;29;170913;-71
2020/12/07 10:59:11;;;;;;;37.17;25.63;;;6.30;99.90;;;;;;4617077;30;170700;-77
2020/12/07 11:01:38;;;;;;;22.97;14.70;;;6.30;99.90;;;;;;4616184;29;170169;-71
2020/12/07 11:04:04;;;;;;;20.67;12.47;;;6.30;99.90;;;;;;4615535;29;171776;-70
2020/12/07 11:06:33;;;;;;;20.80;12.07;;;6.40;99.90;;;;;;4621140;29;170556;-71
2020/12/07 11:09:05;;;;;;;27.47;13.53;;;6.30;99.90;;;;;;4625451;29;171918;-70
2020/12/07 11:11:34;;;;;;;15.87;11.47;;;6.40;99.90;;;;;;4620470;29;171378;-72
2020/12/07 11:14:01;;;;;;;15.80;12.17;;;6.40;99.90;;;;;;4611388;30;171730;-69
2020/12/07 11:16:28;;;;;;;13.57;11.33;;;6.40;99.90;;;;;;4616188;29;171209;-72
2020/12/07 11:18:54;;;;;;;17.97;12.03;;;6.40;99.90;;;;;;4616232;29;171754;-70
2020/12/07 11:21:23;;;;;;;16.77;12.47;;;6.40;99.90;;;;;;4618171;29;169800;-70
2020/12/07 11:23:50;;;;;;;16.57;12.03;;;6.40;99.90;;;;;;4617959;29;173144;-72
2020/12/07 11:26:18;;;;;;;20.70;12.10;;;6.30;99.90;;;;;;4633649;29;171257;-71
2020/12/07 11:28:45;;;;;;;14.70;11.87;;;6.40;99.90;;;;;;4617026;29;170152;-70
2020/12/07 11:31:12;;;;;;;15.27;12.00;;;6.40;99.90;;;;;;4614206;29;171015;-72
2020/12/07 11:33:40;;;;;;;14.70;12.00;;;6.40;99.90;;;;;;4608466;30;169838;-71
2020/12/07 11:36:15;;;;;;;16.70;12.00;;;6.60;99.90;;;;;;4613335;29;170765;-71
2020/12/07 11:39:27;;;;;;;18.83;12.23;;;6.50;99.90;;;;;;4615096;29;169928;-71
2020/12/07 11:41:46;;;;;;;15.93;11.77;;;6.40;99.90;;;;;;4617685;29;169518;-70
2020/12/07 11:44:17;;;;;;;16.93;12.37;;;6.40;99.90;;;;;;4618651;29;170632;-71
2020/12/07 11:46:48;;;;;;;15.17;12.13;;;6.40;99.90;;;;;;4619142;30;173182;-69
2020/12/07 11:49:14;;;;;;;15.93;12.53;;;6.40;99.90;;;;;;4619375;30;170173;-71
2020/12/07 11:51:40;;;;;;;17.60;14.53;;;6.40;99.90;;;;;;4619588;30;169713;-71
2020/12/07 11:54:07;;;;;;;17.20;14.63;;;6.40;99.90;;;;;;4617831;29;171039;-72
2020/12/07 11:56:35;;;;;;;18.67;13.93;;;6.40;99.90;;;;;;4618720;29;169989;-71
2020/12/07 11:59:02;;;;;;;24.50;14.97;;;6.40;99.90;;;;;;4633319;29;170197;-75
2020/12/07 12:01:31;;;;;;;18.10;14.93;;;6.40;99.90;;;;;;4619099;29;169269;-71
2020/12/07 12:03:58;;;;;;;25.73;18.30;;;6.40;99.90;;;;;;4620134;30;170224;-75
2020/12/07 12:06:31;;;;;;;16.13;13.60;;;6.40;99.90;;;;;;4620384;29;170093;-72
2020/12/07 12:08:59;;;;;;;22.10;13.33;;;6.40;99.90;;;;;;4619733;30;169961;-71
2020/12/07 12:11:37;;;;;;;14.90;11.80;;;6.40;99.90;;;;;;4619834;30;169165;-70
2020/12/07 12:14:05;;;;;;;23.77;13.67;;;6.40;99.90;;;;;;4628488;29;172736;-67
2020/12/07 12:16:32;;;;;;;15.10;11.67;;;6.40;99.90;;;;;;4618239;30;170036;-71
2020/12/07 12:19:04;;;;;;;18.03;12.43;;;6.40;99.90;;;;;;4619171;29;170463;-70
2020/12/07 12:21:31;;;;;;;15.93;12.53;;;6.40;99.90;;;;;;4615637;29;169384;-70
2020/12/07 12:24:01;;;;;;;13.20;11.17;;;6.40;99.90;;;;;;4607358;30;170132;-70
2020/12/07 12:26:28;;;;;;;20.97;12.70;;;6.40;99.90;;;;;;4602498;30;172903;-71
2020/12/07 12:28:54;;;;;;;19.80;12.47;;;6.40;99.90;;;;;;4618533;30;172008;-71
2020/12/07 12:31:21;;;;;;;19.03;12.13;;;6.40;99.90;;;;;;4617410;30;169261;-71
2020/12/07 12:33:48;;;;;;;15.60;12.30;;;6.50;99.90;;;;;;4616266;30;169863;-71
2020/12/07 12:36:16;;;;;;;14.90;12.23;;;6.60;99.90;;;;;;4619527;29;171609;-71
2020/12/07 12:38:42;;;;;;;16.97;12.40;;;6.50;99.90;;;;;;4614069;30;170137;-71
2020/12/07 12:41:09;;;;;;;15.67;11.70;;;6.40;99.90;;;;;;4618450;30;169913;-71
2020/12/07 12:43:36;;;;;;;17.53;12.17;;;6.40;99.90;;;;;;4619224;29;169165;-71
2020/12/07 12:46:04;;;;;;;15.07;11.60;;;6.50;99.90;;;;;;4619406;30;170628;-71
2020/12/07 12:48:31;;;;;;;15.97;12.00;;;6.40;99.90;;;;;;4627253;29;170404;-71
2020/12/07 12:50:57;;;;;;;19.20;13.13;;;6.40;99.90;;;;;;4630300;29;170276;-71
2020/12/07 12:53:24;;;;;;;15.50;11.87;;;6.50;99.90;;;;;;4618758;29;170098;-71
2020/12/07 12:55:52;;;;;;;16.37;12.17;;;6.50;99.90;;;;;;4632292;29;170329;-71
2020/12/07 12:58:19;;;;;;;16.73;12.80;;;6.50;99.90;;;;;;4619152;30;170227;-71
2020/12/07 13:00:46;;;;;;;15.33;11.53;;;6.50;99.90;;;;;;4616910;29;169416;-71
2020/12/07 13:03:13;;;;;;;23.83;13.53;;;6.50;99.90;;;;;;4617579;29;171136;-70
2020/12/07 13:05:40;;;;;;;18.20;12.40;;;6.70;99.90;;;;;;4632162;29;172482;-71
2020/12/07 13:08:06;;;;;;;19.30;13.63;;;6.50;99.90;;;;;;4618837;30;170466;-71
2020/12/07 13:10:33;;;;;;;16.73;12.33;;;6.50;99.90;;;;;;4618770;29;171404;-71
2020/12/07 13:12:59;;;;;;;15.37;12.90;;;6.50;99.90;;;;;;4612969;29;169188;-71
2020/12/07 13:15:27;;;;;;;15.37;12.33;;;6.50;99.90;;;;;;4600141;30;170711;-71
2020/12/07 13:17:57;;;;;;;17.53;13.30;;;6.60;99.90;;;;;;4601284;30;169374;-71
2020/12/07 13:20:34;;;;;;;16.77;13.30;;;6.50;99.90;;;;;;4601964;30;169833;-71
2020/12/07 13:23:10;;;;;;;15.80;13.43;;;6.50;99.90;;;;;;4602205;30;170108;-71
2020/12/07 13:26:06;;;;;;;16.23;13.33;;;6.60;99.90;;;;;;4601553;30;171900;-70
2020/12/07 13:28:23;;;;;;;16.87;13.43;;;6.60;99.90;;;;;;4602776;30;170427;-70
2020/12/07 13:30:49;;;;;;;16.37;13.43;;;6.90;99.90;;;;;;4618335;30;169878;-70
2020/12/07 13:33:15;;;;;;;16.97;14.07;;;6.60;99.90;;;;;;4618102;29;172559;-70
2020/12/07 13:35:42;;;;;;;18.17;13.80;;;6.60;99.90;;;;;;4631646;29;172450;-70
2020/12/07 13:38:09;;;;;;;17.47;13.97;;;6.60;99.90;;;;;;4618243;30;169785;-71
2020/12/07 13:40:36;;;;;;;17.33;14.43;;;6.60;99.90;;;;;;4627394;29;170475;-70
2020/12/07 13:43:03;;;;;;;17.20;14.50;;;6.60;99.90;;;;;;4615814;29;172668;-70
2020/12/07 13:45:30;;;;;;;18.93;14.53;;;6.60;99.90;;;;;;4611218;29;171789;-70
2020/12/07 13:47:57;;;;;;;18.57;14.10;;;6.60;99.90;;;;;;4637604;29;173600;-70
2020/12/07 13:50:24;;;;;;;18.80;14.37;;;6.60;99.90;;;;;;4631601;29;169615;-70
2020/12/07 13:52:50;;;;;;;17.30;13.57;;;6.60;99.90;;;;;;4595889;30;174525;-70
2020/12/07 13:55:17;;;;;;;19.67;15.30;;;6.60;99.90;;;;;;4599102;30;172713;-71
2020/12/07 13:57:44;;;;;;;20.67;15.17;;;6.60;99.90;;;;;;4599191;30;170060;-69
2020/12/07 14:00:11;;;;;;;16.87;14.07;;;6.60;99.90;;;;;;4599147;30;169849;-69
2020/12/07 14:02:38;;;;;;;18.13;14.50;;;6.60;99.90;;;;;;4597646;30;169344;-70
2020/12/07 14:05:05;;;;;;;18.07;14.20;;;6.60;99.90;;;;;;4601907;30;170689;-70
2020/12/07 14:07:32;;;;;;;18.33;14.67;;;6.60;99.90;;;;;;4615480;30;169487;-70
2020/12/07 14:10:00;;;;;;;24.87;14.80;;;6.70;99.90;;;;;;4616290;30;169138;-69
2020/12/07 14:12:26;;;;;;;18.53;15.40;;;6.60;99.90;;;;;;4615544;29;170058;-70
2020/12/07 14:14:53;;;;;;;19.83;15.43;;;6.60;99.90;;;;;;4631278;29;171230;-70
2020/12/07 14:17:24;;;;;;;18.77;14.97;;;6.60;99.90;;;;;;4618606;29;170617;-70
2020/12/07 14:20:13;;;;;;;19.57;14.93;;;6.60;99.90;;;;;;4630985;29;169375;-70
2020/12/07 14:41:55;;;;;;;16.83;14.50;;;6.60;99.90;;;;;;4611875;30;169516;-70
2020/12/07 14:44:23;;;;;;;18.77;14.30;;;6.70;99.90;;;;;;4616549;30;173292;-70
2020/12/07 14:46:51;;;;;;;17.97;14.33;;;6.60;99.90;;;;;;4617700;30;169645;-70
2020/12/07 14:49:17;;;;;;;17.13;14.17;;;6.70;99.90;;;;;;4617264;30;169846;-70
2020/12/07 14:51:51;;;;;;;16.43;13.63;;;6.60;99.90;;;;;;4617855;30;169525;-71
2020/12/07 14:54:22;;;;;;;20.57;14.67;;;6.60;99.90;;;;;;4616858;30;170225;-69
2020/12/07 15:11:20;;;;;;;26.23;15.47;;;6.60;99.90;;;;;;4625248;29;170602;-70
2020/12/07 15:16:13;;;;;;;50.57;16.53;;;6.60;99.90;;;;;;4600281;30;170402;-71
2020/12/07 15:18:42;;;;;;;61.27;18.97;;;6.60;99.90;;;;;;4601114;30;170690;-71
2020/12/07 15:21:11;;;;;;;35.13;16.20;;;6.60;99.90;;;;;;4612886;30;169347;-72
2020/12/07 15:23:38;;;;;;;88.30;20.20;;;6.60;99.90;;;;;;4599989;30;169887;-71
2020/12/07 15:26:05;;;;;;;19.40;14.37;;;6.60;99.90;;;;;;4601021;30;170055;-71
2020/12/07 15:28:33;;;;;;;22.20;15.93;;;6.60;99.90;;;;;;4613602;29;170074;-71
2020/12/07 15:31:02;;;;;;;23.37;14.93;;;6.60;99.90;;;;;;4607862;30;169177;-71
2020/12/07 15:33:29;;;;;;;48.10;16.80;;;6.60;99.90;;;;;;4616723;30;169236;-71
2020/12/07 15:35:59;;;;;;;38.33;16.47;;;6.60;99.90;;;;;;4616473;30;170941;-70
2020/12/07 15:38:28;;;;;;;73.43;18.30;;;6.60;99.90;;;;;;4617394;30;171226;-71
2020/12/07 15:40:54;;;;;;;101.97;22.97;;;6.60;99.90;;;;;;4615784;30;169953;-71
2020/12/07 15:43:21;;;;;;;128.53;24.80;;;6.60;99.90;;;;;;4616189;30;169705;-71
2020/12/07 15:45:48;;;;;;;46.30;17.80;;;6.60;99.90;;;;;;4616814;30;173140;-72
2020/12/07 15:48:17;;;;;;;49.03;17.83;;;6.60;99.90;;;;;;4616130;29;170717;-71
2020/12/07 15:50:43;;;;;;;67.53;19.43;;;6.60;99.90;;;;;;4614980;30;169774;-71
2020/12/07 15:53:10;;;;;;;24.03;16.03;;;6.60;99.90;;;;;;4627316;29;169943;-71
2020/12/07 15:55:36;;;;;;;20.13;15.43;;;6.60;99.90;;;;;;4615887;30;169753;-73
2020/12/07 15:58:02;;;;;;;19.20;14.83;;;6.60;99.90;;;;;;4628542;29;172404;-73
2020/12/07 16:00:29;;;;;;;41.90;16.07;;;6.60;99.90;;;;;;4628549;29;173837;-73
2020/12/07 16:03:02;;;;;;;74.07;19.43;;;6.60;99.90;;;;;;4627020;29;169933;-73
2020/12/07 16:05:32;;;;;;;18.97;14.40;;;6.60;99.90;;;;;;4617043;30;170093;-73
2020/12/07 16:07:58;;;;;;;22.13;15.00;;;6.60;99.90;;;;;;4600413;30;171013;-73
2020/12/07 16:10:25;;;;;;;85.23;21.50;;;6.60;99.90;;;;;;4612877;30;174022;-73
2020/12/07 16:12:52;;;;;;;22.63;15.13;;;6.60;99.90;;;;;;4599891;30;169766;-73
2020/12/07 16:15:18;;;;;;;53.73;17.50;;;6.60;99.90;;;;;;4608808;30;171569;-73
2020/12/07 16:17:47;;;;;;;34.93;16.70;;;6.60;99.90;;;;;;4617264;30;170828;-73
2020/12/07 16:20:14;;;;;;;32.20;16.07;;;6.60;99.90;;;;;;4630564;29;170273;-71
2020/12/07 16:22:41;;;;;;;27.77;15.93;;;6.60;99.90;;;;;;4616335;29;169709;-72
2020/12/07 16:25:08;;;;;;;21.90;17.73;;;6.50;99.90;;;;;;4616652;30;170939;-71
2020/12/07 16:27:36;;;;;;;18.17;14.67;;;6.50;99.90;;;;;;4617168;29;170708;-71
2020/12/07 16:30:04;;;;;;;20.97;14.50;;;6.50;99.90;;;;;;4616612;30;172425;-71
2020/12/07 16:32:34;;;;;;;28.53;16.27;;;6.50;99.90;;;;;;4614491;30;169620;-71
2020/12/07 16:35:01;;;;;;;22.27;15.07;;;6.50;99.90;;;;;;4616783;30;169857;-70
2020/12/07 16:37:27;;;;;;;26.10;15.13;;;6.50;99.90;;;;;;4630216;29;170321;-70
2020/12/07 16:39:53;;;;;;;26.80;15.70;;;6.50;99.90;;;;;;4609025;29;170116;-71
2020/12/07 16:42:20;;;;;;;36.67;16.77;;;6.40;99.90;;;;;;4615099;29;169697;-70
2020/12/07 16:44:46;;;;;;;98.43;21.67;;;6.40;99.90;;;;;;4613132;30;172925;-73
2020/12/07 16:47:12;;;;;;;29.17;15.17;;;6.40;99.90;;;;;;4615551;30;171528;-72
2020/12/07 16:49:38;;;;;;;58.47;18.47;;;6.40;99.90;;;;;;4613946;30;170840;-72
2020/12/07 16:52:08;;;;;;;33.13;16.17;;;6.30;99.90;;;;;;4611942;29;170486;-71
2020/12/07 16:54:37;;;;;;;23.17;14.63;;;6.40;99.90;;;;;;4615052;29;171663;-71
2020/12/07 16:57:07;;;;;;;28.07;16.03;;;6.40;99.90;;;;;;4616161;30;170151;-70
2020/12/07 16:59:34;;;;;;;50.37;17.80;;;6.30;99.90;;;;;;4616022;30;170436;-69
2020/12/07 17:02:01;;;;;;;33.90;15.50;;;6.30;99.90;;;;;;4614962;29;171403;-69
2020/12/07 17:04:27;;;;;;;24.00;17.20;;;6.30;99.90;;;;;;4616415;30;169799;-70
2020/12/07 17:06:56;;;;;;;29.53;17.53;;;6.30;99.90;;;;;;4629666;29;172758;-70
2020/12/07 17:09:23;;;;;;;19.17;15.63;;;6.30;99.90;;;;;;4616144;29;169206;-70
2020/12/07 17:11:51;;;;;;;36.53;17.83;;;6.30;99.90;;;;;;4613329;29;169863;-70
2020/12/07 17:14:20;;;;;;;29.60;16.50;;;6.30;99.90;;;;;;4627630;29;171520;-70
2020/12/07 17:16:49;;;;;;;29.30;17.47;;;6.30;99.90;;;;;;4629527;29;171809;-70
2020/12/07 17:19:16;;;;;;;57.67;18.37;;;6.30;99.90;;;;;;4614586;29;169743;-69
2020/12/07 17:21:43;;;;;;;53.70;18.57;;;6.30;99.90;;;;;;4614237;29;172218;-69
2020/12/07 17:24:09;;;;;;;73.20;20.60;;;6.30;99.90;;;;;;4616602;30;170356;-69
2020/12/07 17:26:40;;;;;;;59.33;18.43;;;6.30;99.90;;;;;;4611297;30;170276;-69
2020/12/07 17:29:09;;;;;;;25.60;15.93;;;6.30;99.90;;;;;;4602383;30;170407;-70
2020/12/07 17:31:38;;;;;;;41.50;17.50;;;6.30;99.90;;;;;;4615290;30;169981;-71
2020/12/07 17:34:07;;;;;;;98.97;21.63;;;6.30;99.90;;;;;;4614453;29;169860;-70
2020/12/07 17:36:35;;;;;;;84.50;21.17;;;6.20;99.90;;;;;;4616165;29;171540;-71
2020/12/07 17:39:05;;;;;;;29.07;15.93;;;6.20;99.90;;;;;;4615320;30;170186;-71
2020/12/07 17:41:38;;;;;;;32.97;16.37;;;6.20;99.90;;;;;;4615085;29;169930;-71
2020/12/07 17:44:05;;;;;;;23.40;15.13;;;6.10;99.90;;;;;;4611240;30;169851;-70
2020/12/07 17:46:34;;;;;;;30.80;15.07;;;6.10;99.90;;;;;;4613540;30;172782;-71
2020/12/07 17:49:01;;;;;;;23.27;14.67;;;6.60;99.90;;;;;;4604675;30;170188;-71
2020/12/07 17:51:27;;;;;;;43.80;16.57;;;6.00;99.90;;;;;;4611047;30;169703;-71
2020/12/07 17:53:54;;;;;;;26.07;15.10;;;6.00;99.90;;;;;;4627782;29;173674;-71
2020/12/07 17:56:24;;;;;;;61.57;18.57;;;6.00;99.90;;;;;;4625049;29;170617;-71
2020/12/07 17:58:50;;;;;;;62.53;18.07;;;6.00;99.90;;;;;;4626395;29;176208;-71
2020/12/07 18:01:17;;;;;;;19.90;13.70;;;5.90;99.90;;;;;;4608178;30;171211;-71
2020/12/07 18:03:43;;;;;;;27.63;15.20;;;5.90;99.90;;;;;;4615285;29;172423;-72
2020/12/07 18:06:20;;;;;;;45.67;14.90;;;5.90;99.90;;;;;;4628206;29;172248;-71
2020/12/07 18:08:47;;;;;;;21.90;13.97;;;5.80;99.90;;;;;;4632879;29;169825;-71
2020/12/07 18:11:13;;;;;;;18.13;13.73;;;5.80;99.90;;;;;;4617305;29;170424;-71
2020/12/07 18:13:40;;;;;;;18.80;13.80;;;5.80;99.90;;;;;;4613442;30;171824;-72
2020/12/07 18:16:06;;;;;;;19.30;14.23;;;5.70;99.90;;;;;;4610831;30;172337;-71
2020/12/07 18:18:36;;;;;;;18.80;14.50;;;5.70;99.90;;;;;;4612068;29;169344;-71
2020/12/07 18:21:03;;;;;;;61.60;28.07;;;5.70;99.90;;;;;;4614327;29;170956;-71
2020/12/07 18:23:29;;;;;;;24.43;16.53;;;5.60;99.90;;;;;;4612155;29;170347;-71
2020/12/07 18:25:55;;;;;;;20.17;14.70;;;5.60;99.90;;;;;;4610990;29;172121;-71
2020/12/07 18:28:33;;;;;;;25.70;15.40;;;5.70;99.90;;;;;;4612888;29;173250;-71
2020/12/07 18:31:04;;;;;;;25.47;14.80;;;5.60;99.90;;;;;;4609638;29;170464;-71
2020/12/07 18:33:30;;;;;;;15.47;13.07;;;5.50;99.90;;;;;;4612614;29;171318;-71
2020/12/07 18:35:56;;;;;;;20.03;14.20;;;5.50;99.90;;;;;;4608546;30;170593;-71
2020/12/07 18:38:23;;;;;;;16.77;13.53;;;5.50;99.90;;;;;;4612970;30;170869;-71
2020/12/07 18:40:49;;;;;;;40.70;18.53;;;5.50;99.90;;;;;;4612375;30;169881;-71